sensor_id;sensor_type;location;lat;lon;timestamp;P1;durP1;ratioP1;P2;durP2;ratioP2
69325;SDS011;56471;53.508;49.252;2022-12-07T00:01:10;7.03;;;3.83;;
69325;SDS011;56471;53.508;49.252;2022-12-07T00:03:38;6.40;;;3.40;;
69325;SDS011;56471;53.508;49.252;2022-12-07T00:06:06;7.35;;;3.60;;
69325;SDS011;56471;53.508;49.252;2022-12-07T00:08:33;7.82;;;3.40;;
69325;SDS011;56471;53.508;49.252;2022-12-07T00:11:02;8.70;;;3.55;;
69325;SDS011;56471;53.508;49.252;2022-12-07T00:13:33;6.68;;;3.15;;
69325;SDS011;56471;53.508;49.252;2022-12-07T00:16:03;6.40;;;3.28;;
69325;SDS011;56471;53.508;49.252;2022-12-07T00:18:38;9.23;;;3.45;;
69325;SDS011;56471;53.508;49.252;2022-12-07T00:21:11;6.68;;;3.15;;
69325;SDS011;56471;53.508;49.252;2022-12-07T00:23:40;5.53;;;3.15;;
69325;SDS011;56471;53.508;49.252;2022-12-07T00:26:07;6.85;;;3.20;;
69325;SDS011;56471;53.508;49.252;2022-12-07T00:28:38;5.75;;;3.30;;
69325;SDS011;56471;53.508;49.252;2022-12-07T00:31:05;6.63;;;3.40;;
69325;SDS011;56471;53.508;49.252;2022-12-07T00:33:32;6.45;;;3.60;;
69325;SDS011;56471;53.508;49.252;2022-12-07T00:35:59;6.53;;;3.42;;
69325;SDS011;56471;53.508;49.252;2022-12-07T00:38:27;6.80;;;3.03;;
69325;SDS011;56471;53.508;49.252;2022-12-07T00:40:58;6.05;;;3.40;;
69325;SDS011;56471;53.508;49.252;2022-12-07T00:43:25;6.38;;;3.40;;
69325;SDS011;56471;53.508;49.252;2022-12-07T00:45:52;5.30;;;3.00;;
69325;SDS011;56471;53.508;49.252;2022-12-07T00:48:18;6.70;;;3.38;;
69325;SDS011;56471;53.508;49.252;2022-12-07T00:50:44;6.40;;;3.55;;
69325;SDS011;56471;53.508;49.252;2022-12-07T00:53:10;4.78;;;3.05;;
69325;SDS011;56471;53.508;49.252;2022-12-07T00:55:35;6.57;;;3.25;;
69325;SDS011;56471;53.508;49.252;2022-12-07T00:58:02;5.13;;;3.08;;
69325;SDS011;56471;53.508;49.252;2022-12-07T01:00:28;6.80;;;3.30;;
69325;SDS011;56471;53.508;49.252;2022-12-07T01:02:54;7.13;;;3.65;;
69325;SDS011;56471;53.508;49.252;2022-12-07T01:05:20;5.45;;;3.38;;
69325;SDS011;56471;53.508;49.252;2022-12-07T01:07:45;4.97;;;3.10;;
69325;SDS011;56471;53.508;49.252;2022-12-07T01:10:12;5.35;;;3.10;;
69325;SDS011;56471;53.508;49.252;2022-12-07T01:12:38;5.13;;;3.38;;
69325;SDS011;56471;53.508;49.252;2022-12-07T01:15:05;5.45;;;3.20;;
69325;SDS011;56471;53.508;49.252;2022-12-07T01:17:31;5.45;;;2.95;;
69325;SDS011;56471;53.508;49.252;2022-12-07T01:19:57;7.50;;;3.33;;
69325;SDS011;56471;53.508;49.252;2022-12-07T01:22:23;4.78;;;3.22;;
69325;SDS011;56471;53.508;49.252;2022-12-07T01:24:49;5.88;;;3.08;;
69325;SDS011;56471;53.508;49.252;2022-12-07T01:27:14;5.78;;;3.03;;
69325;SDS011;56471;53.508;49.252;2022-12-07T01:29:40;5.53;;;2.88;;
69325;SDS011;56471;53.508;49.252;2022-12-07T01:32:06;6.03;;;2.92;;
69325;SDS011;56471;53.508;49.252;2022-12-07T01:34:32;5.43;;;2.78;;
69325;SDS011;56471;53.508;49.252;2022-12-07T01:36:57;5.88;;;2.85;;
69325;SDS011;56471;53.508;49.252;2022-12-07T01:39:23;5.38;;;2.90;;
69325;SDS011;56471;53.508;49.252;2022-12-07T01:41:49;5.75;;;3.28;;
69325;SDS011;56471;53.508;49.252;2022-12-07T01:44:25;4.72;;;3.10;;
69325;SDS011;56471;53.508;49.252;2022-12-07T01:46:55;5.53;;;3.13;;
69325;SDS011;56471;53.508;49.252;2022-12-07T01:49:31;6.40;;;2.75;;
69325;SDS011;56471;53.508;49.252;2022-12-07T01:52:03;4.55;;;3.20;;
69325;SDS011;56471;53.508;49.252;2022-12-07T01:54:57;5.03;;;3.10;;
69325;SDS011;56471;53.508;49.252;2022-12-07T01:57:28;5.80;;;3.63;;
69325;SDS011;56471;53.508;49.252;2022-12-07T01:59:56;7.03;;;3.17;;
69325;SDS011;56471;53.508;49.252;2022-12-07T02:02:23;5.80;;;3.05;;
69325;SDS011;56471;53.508;49.252;2022-12-07T02:04:53;5.50;;;3.22;;
69325;SDS011;56471;53.508;49.252;2022-12-07T02:07:20;7.63;;;3.55;;
69325;SDS011;56471;53.508;49.252;2022-12-07T02:09:46;5.22;;;3.00;;
69325;SDS011;56471;53.508;49.252;2022-12-07T02:12:12;5.63;;;3.20;;
69325;SDS011;56471;53.508;49.252;2022-12-07T02:14:38;6.43;;;3.10;;
69325;SDS011;56471;53.508;49.252;2022-12-07T02:25:57;7.13;;;3.47;;
69325;SDS011;56471;53.508;49.252;2022-12-07T02:28:35;5.03;;;3.03;;
69325;SDS011;56471;53.508;49.252;2022-12-07T02:31:12;5.55;;;3.03;;
69325;SDS011;56471;53.508;49.252;2022-12-07T02:33:47;6.00;;;3.55;;
69325;SDS011;56471;53.508;49.252;2022-12-07T02:36:30;7.38;;;3.60;;
69325;SDS011;56471;53.508;49.252;2022-12-07T02:39:02;5.68;;;3.28;;
69325;SDS011;56471;53.508;49.252;2022-12-07T02:41:33;6.95;;;3.70;;
69325;SDS011;56471;53.508;49.252;2022-12-07T02:44:06;7.15;;;3.28;;
69325;SDS011;56471;53.508;49.252;2022-12-07T02:46:42;6.82;;;3.30;;
69325;SDS011;56471;53.508;49.252;2022-12-07T02:49:11;6.35;;;3.20;;
69325;SDS011;56471;53.508;49.252;2022-12-07T02:51:41;5.47;;;3.20;;
69325;SDS011;56471;53.508;49.252;2022-12-07T02:54:16;5.82;;;3.15;;
69325;SDS011;56471;53.508;49.252;2022-12-07T02:56:46;7.07;;;3.60;;
69325;SDS011;56471;53.508;49.252;2022-12-07T03:07:25;6.38;;;3.03;;
69325;SDS011;56471;53.508;49.252;2022-12-07T03:12:54;6.63;;;3.25;;
69325;SDS011;56471;53.508;49.252;2022-12-07T03:15:31;7.57;;;3.80;;
69325;SDS011;56471;53.508;49.252;2022-12-07T03:20:27;6.03;;;3.20;;
69325;SDS011;56471;53.508;49.252;2022-12-07T03:22:54;6.55;;;3.30;;
69325;SDS011;56471;53.508;49.252;2022-12-07T03:25:22;7.78;;;3.97;;
69325;SDS011;56471;53.508;49.252;2022-12-07T03:28:01;5.40;;;3.28;;
69325;SDS011;56471;53.508;49.252;2022-12-07T03:30:33;5.68;;;3.33;;
69325;SDS011;56471;53.508;49.252;2022-12-07T03:33:07;5.95;;;3.30;;
69325;SDS011;56471;53.508;49.252;2022-12-07T03:35:42;7.60;;;3.60;;
69325;SDS011;56471;53.508;49.252;2022-12-07T03:38:14;6.77;;;3.43;;
69325;SDS011;56471;53.508;49.252;2022-12-07T03:41:01;6.32;;;2.97;;
69325;SDS011;56471;53.508;49.252;2022-12-07T03:43:31;6.47;;;3.33;;
69325;SDS011;56471;53.508;49.252;2022-12-07T03:51:52;6.88;;;3.53;;
69325;SDS011;56471;53.508;49.252;2022-12-07T03:54:28;6.25;;;3.13;;
69325;SDS011;56471;53.508;49.252;2022-12-07T03:56:57;5.97;;;3.10;;
69325;SDS011;56471;53.508;49.252;2022-12-07T03:59:24;5.97;;;3.35;;
69325;SDS011;56471;53.508;49.252;2022-12-07T04:01:55;8.00;;;3.95;;
69325;SDS011;56471;53.508;49.252;2022-12-07T04:04:26;6.18;;;3.28;;
69325;SDS011;56471;53.508;49.252;2022-12-07T04:06:53;5.57;;;3.17;;
69325;SDS011;56471;53.508;49.252;2022-12-07T04:09:18;7.35;;;3.70;;
69325;SDS011;56471;53.508;49.252;2022-12-07T04:11:44;5.90;;;3.42;;
69325;SDS011;56471;53.508;49.252;2022-12-07T04:14:10;7.53;;;3.90;;
69325;SDS011;56471;53.508;49.252;2022-12-07T04:16:45;7.40;;;3.50;;
69325;SDS011;56471;53.508;49.252;2022-12-07T04:19:19;5.70;;;3.55;;
69325;SDS011;56471;53.508;49.252;2022-12-07T04:21:46;4.95;;;3.30;;
69325;SDS011;56471;53.508;49.252;2022-12-07T04:24:12;5.45;;;3.58;;
69325;SDS011;56471;53.508;49.252;2022-12-07T04:26:39;7.45;;;3.65;;
69325;SDS011;56471;53.508;49.252;2022-12-07T04:29:05;6.03;;;3.83;;
69325;SDS011;56471;53.508;49.252;2022-12-07T04:31:31;7.18;;;3.90;;
69325;SDS011;56471;53.508;49.252;2022-12-07T04:33:56;6.75;;;3.38;;
69325;SDS011;56471;53.508;49.252;2022-12-07T04:36:22;6.00;;;3.63;;
69325;SDS011;56471;53.508;49.252;2022-12-07T04:38:48;5.70;;;3.35;;
69325;SDS011;56471;53.508;49.252;2022-12-07T04:41:14;6.70;;;3.80;;
69325;SDS011;56471;53.508;49.252;2022-12-07T04:43:39;6.78;;;3.60;;
69325;SDS011;56471;53.508;49.252;2022-12-07T04:46:05;6.80;;;3.42;;
69325;SDS011;56471;53.508;49.252;2022-12-07T04:48:31;5.75;;;3.28;;
69325;SDS011;56471;53.508;49.252;2022-12-07T04:50:57;8.95;;;3.45;;
69325;SDS011;56471;53.508;49.252;2022-12-07T04:53:22;6.30;;;3.58;;
69325;SDS011;56471;53.508;49.252;2022-12-07T04:55:48;5.75;;;3.53;;
69325;SDS011;56471;53.508;49.252;2022-12-07T04:58:14;7.18;;;4.10;;
69325;SDS011;56471;53.508;49.252;2022-12-07T05:00:40;8.20;;;3.80;;
69325;SDS011;56471;53.508;49.252;2022-12-07T05:03:06;7.78;;;3.72;;
69325;SDS011;56471;53.508;49.252;2022-12-07T05:05:32;6.90;;;3.72;;
69325;SDS011;56471;53.508;49.252;2022-12-07T05:07:58;4.75;;;3.20;;
69325;SDS011;56471;53.508;49.252;2022-12-07T05:10:23;6.40;;;3.60;;
69325;SDS011;56471;53.508;49.252;2022-12-07T05:12:49;7.57;;;3.75;;
69325;SDS011;56471;53.508;49.252;2022-12-07T05:15:15;6.80;;;3.67;;
69325;SDS011;56471;53.508;49.252;2022-12-07T05:17:41;8.00;;;3.80;;
69325;SDS011;56471;53.508;49.252;2022-12-07T05:20:07;7.15;;;3.88;;
69325;SDS011;56471;53.508;49.252;2022-12-07T05:22:33;9.20;;;4.25;;
69325;SDS011;56471;53.508;49.252;2022-12-07T05:24:58;7.43;;;3.72;;
69325;SDS011;56471;53.508;49.252;2022-12-07T05:27:24;6.90;;;3.50;;
69325;SDS011;56471;53.508;49.252;2022-12-07T05:29:50;7.30;;;3.80;;
69325;SDS011;56471;53.508;49.252;2022-12-07T05:32:16;6.63;;;3.75;;
69325;SDS011;56471;53.508;49.252;2022-12-07T05:34:43;6.38;;;3.67;;
69325;SDS011;56471;53.508;49.252;2022-12-07T05:37:08;5.85;;;3.70;;
69325;SDS011;56471;53.508;49.252;2022-12-07T05:39:34;6.55;;;3.60;;
69325;SDS011;56471;53.508;49.252;2022-12-07T05:42:00;7.07;;;3.88;;
69325;SDS011;56471;53.508;49.252;2022-12-07T05:44:38;7.25;;;3.78;;
69325;SDS011;56471;53.508;49.252;2022-12-07T05:47:08;7.80;;;4.13;;
69325;SDS011;56471;53.508;49.252;2022-12-07T05:49:34;6.80;;;3.55;;
69325;SDS011;56471;53.508;49.252;2022-12-07T05:52:00;7.57;;;3.85;;
69325;SDS011;56471;53.508;49.252;2022-12-07T05:54:26;6.00;;;3.58;;
69325;SDS011;56471;53.508;49.252;2022-12-07T05:56:52;7.80;;;3.70;;
69325;SDS011;56471;53.508;49.252;2022-12-07T05:59:18;7.15;;;3.80;;
69325;SDS011;56471;53.508;49.252;2022-12-07T06:01:56;6.45;;;3.58;;
69325;SDS011;56471;53.508;49.252;2022-12-07T06:04:24;6.68;;;3.72;;
69325;SDS011;56471;53.508;49.252;2022-12-07T06:06:52;6.68;;;3.40;;
69325;SDS011;56471;53.508;49.252;2022-12-07T06:09:18;6.85;;;3.50;;
69325;SDS011;56471;53.508;49.252;2022-12-07T06:11:45;5.65;;;3.53;;
69325;SDS011;56471;53.508;49.252;2022-12-07T06:14:30;6.68;;;3.42;;
69325;SDS011;56471;53.508;49.252;2022-12-07T06:16:55;6.13;;;3.42;;
69325;SDS011;56471;53.508;49.252;2022-12-07T06:19:21;7.65;;;3.50;;
69325;SDS011;56471;53.508;49.252;2022-12-07T06:21:47;5.97;;;3.25;;
69325;SDS011;56471;53.508;49.252;2022-12-07T06:24:13;6.97;;;3.50;;
69325;SDS011;56471;53.508;49.252;2022-12-07T06:26:40;6.35;;;3.42;;
69325;SDS011;56471;53.508;49.252;2022-12-07T06:29:07;6.70;;;3.00;;
69325;SDS011;56471;53.508;49.252;2022-12-07T06:31:33;8.07;;;3.38;;
69325;SDS011;56471;53.508;49.252;2022-12-07T06:34:03;5.63;;;3.17;;
69325;SDS011;56471;53.508;49.252;2022-12-07T06:36:34;7.35;;;3.15;;
69325;SDS011;56471;53.508;49.252;2022-12-07T06:39:00;6.60;;;3.33;;
69325;SDS011;56471;53.508;49.252;2022-12-07T06:41:26;6.25;;;3.05;;
69325;SDS011;56471;53.508;49.252;2022-12-07T06:43:52;5.05;;;2.92;;
69325;SDS011;56471;53.508;49.252;2022-12-07T06:46:18;6.18;;;3.15;;
69325;SDS011;56471;53.508;49.252;2022-12-07T06:48:43;6.50;;;3.40;;
69325;SDS011;56471;53.508;49.252;2022-12-07T06:51:09;6.47;;;3.47;;
69325;SDS011;56471;53.508;49.252;2022-12-07T06:53:35;5.80;;;3.33;;
69325;SDS011;56471;53.508;49.252;2022-12-07T06:56:02;5.78;;;3.20;;
69325;SDS011;56471;53.508;49.252;2022-12-07T06:58:28;4.18;;;2.83;;
69325;SDS011;56471;53.508;49.252;2022-12-07T07:00:54;5.30;;;2.95;;
69325;SDS011;56471;53.508;49.252;2022-12-07T07:03:20;6.88;;;3.30;;
69325;SDS011;56471;53.508;49.252;2022-12-07T07:05:46;6.97;;;3.30;;
69325;SDS011;56471;53.508;49.252;2022-12-07T07:08:12;6.03;;;2.80;;
69325;SDS011;56471;53.508;49.252;2022-12-07T07:10:38;4.85;;;3.10;;
69325;SDS011;56471;53.508;49.252;2022-12-07T07:13:04;5.82;;;3.03;;
69325;SDS011;56471;53.508;49.252;2022-12-07T07:15:31;5.05;;;2.90;;
69325;SDS011;56471;53.508;49.252;2022-12-07T07:17:57;6.20;;;2.80;;
69325;SDS011;56471;53.508;49.252;2022-12-07T07:20:22;4.18;;;2.47;;
69325;SDS011;56471;53.508;49.252;2022-12-07T07:22:48;5.10;;;3.10;;
69325;SDS011;56471;53.508;49.252;2022-12-07T07:25:15;4.85;;;2.90;;
69325;SDS011;56471;53.508;49.252;2022-12-07T07:27:41;5.40;;;2.90;;
69325;SDS011;56471;53.508;49.252;2022-12-07T07:30:07;4.53;;;2.88;;
69325;SDS011;56471;53.508;49.252;2022-12-07T07:32:33;4.30;;;2.72;;
69325;SDS011;56471;53.508;49.252;2022-12-07T07:34:59;4.80;;;2.83;;
69325;SDS011;56471;53.508;49.252;2022-12-07T07:37:25;5.88;;;3.13;;
69325;SDS011;56471;53.508;49.252;2022-12-07T07:39:51;5.57;;;2.90;;
69325;SDS011;56471;53.508;49.252;2022-12-07T07:42:17;5.45;;;2.97;;
69325;SDS011;56471;53.508;49.252;2022-12-07T07:44:43;6.22;;;2.63;;
69325;SDS011;56471;53.508;49.252;2022-12-07T07:47:08;4.20;;;2.60;;
69325;SDS011;56471;53.508;49.252;2022-12-07T07:49:34;4.93;;;2.90;;
69325;SDS011;56471;53.508;49.252;2022-12-07T07:52:00;5.32;;;2.88;;
69325;SDS011;56471;53.508;49.252;2022-12-07T07:54:26;6.13;;;3.13;;
69325;SDS011;56471;53.508;49.252;2022-12-07T07:56:52;5.10;;;2.83;;
69325;SDS011;56471;53.508;49.252;2022-12-07T07:59:18;4.05;;;2.40;;
69325;SDS011;56471;53.508;49.252;2022-12-07T08:01:43;5.20;;;2.85;;
69325;SDS011;56471;53.508;49.252;2022-12-07T08:04:09;6.40;;;2.47;;
69325;SDS011;56471;53.508;49.252;2022-12-07T08:06:35;5.32;;;2.75;;
69325;SDS011;56471;53.508;49.252;2022-12-07T08:09:01;5.10;;;2.85;;
69325;SDS011;56471;53.508;49.252;2022-12-07T08:11:28;3.45;;;2.30;;
69325;SDS011;56471;53.508;49.252;2022-12-07T08:13:53;3.70;;;2.45;;
69325;SDS011;56471;53.508;49.252;2022-12-07T08:16:19;4.13;;;2.50;;
69325;SDS011;56471;53.508;49.252;2022-12-07T08:18:45;3.85;;;2.40;;
69325;SDS011;56471;53.508;49.252;2022-12-07T08:21:11;3.97;;;2.30;;
69325;SDS011;56471;53.508;49.252;2022-12-07T08:23:39;3.55;;;2.30;;
69325;SDS011;56471;53.508;49.252;2022-12-07T08:26:05;5.50;;;2.35;;
69325;SDS011;56471;53.508;49.252;2022-12-07T08:28:33;3.95;;;2.28;;
69325;SDS011;56471;53.508;49.252;2022-12-07T08:31:02;5.32;;;2.40;;
69325;SDS011;56471;53.508;49.252;2022-12-07T08:33:30;4.30;;;2.40;;
69325;SDS011;56471;53.508;49.252;2022-12-07T08:36:00;3.97;;;2.30;;
69325;SDS011;56471;53.508;49.252;2022-12-07T08:38:26;5.25;;;2.65;;
69325;SDS011;56471;53.508;49.252;2022-12-07T08:40:58;5.72;;;2.58;;
69325;SDS011;56471;53.508;49.252;2022-12-07T08:43:24;4.45;;;2.47;;
69325;SDS011;56471;53.508;49.252;2022-12-07T08:46:37;4.47;;;2.78;;
69325;SDS011;56471;53.508;49.252;2022-12-07T08:48:38;4.82;;;2.90;;
69325;SDS011;56471;53.508;49.252;2022-12-07T08:51:07;4.38;;;2.60;;
69325;SDS011;56471;53.508;49.252;2022-12-07T08:53:33;3.83;;;2.60;;
69325;SDS011;56471;53.508;49.252;2022-12-07T08:56:00;4.18;;;2.30;;
69325;SDS011;56471;53.508;49.252;2022-12-07T08:58:26;3.95;;;2.45;;
69325;SDS011;56471;53.508;49.252;2022-12-07T09:00:52;4.40;;;2.30;;
69325;SDS011;56471;53.508;49.252;2022-12-07T09:03:17;4.40;;;2.40;;
69325;SDS011;56471;53.508;49.252;2022-12-07T09:05:44;4.40;;;2.60;;
69325;SDS011;56471;53.508;49.252;2022-12-07T09:08:09;3.75;;;2.25;;
69325;SDS011;56471;53.508;49.252;2022-12-07T09:10:35;5.82;;;2.60;;
69325;SDS011;56471;53.508;49.252;2022-12-07T09:13:01;4.35;;;2.40;;
69325;SDS011;56471;53.508;49.252;2022-12-07T09:15:30;4.28;;;2.33;;
69325;SDS011;56471;53.508;49.252;2022-12-07T09:17:56;4.70;;;2.50;;
69325;SDS011;56471;53.508;49.252;2022-12-07T09:20:22;4.57;;;2.70;;
69325;SDS011;56471;53.508;49.252;2022-12-07T09:22:48;3.90;;;2.25;;
69325;SDS011;56471;53.508;49.252;2022-12-07T09:25:14;3.63;;;2.10;;
69325;SDS011;56471;53.508;49.252;2022-12-07T09:27:40;3.90;;;2.53;;
69325;SDS011;56471;53.508;49.252;2022-12-07T09:30:07;4.65;;;2.40;;
69325;SDS011;56471;53.508;49.252;2022-12-07T09:32:33;3.50;;;2.33;;
69325;SDS011;56471;53.508;49.252;2022-12-07T09:34:59;3.78;;;2.50;;
69325;SDS011;56471;53.508;49.252;2022-12-07T09:37:25;4.15;;;2.50;;
69325;SDS011;56471;53.508;49.252;2022-12-07T09:39:51;4.28;;;2.38;;
69325;SDS011;56471;53.508;49.252;2022-12-07T09:42:30;3.83;;;2.30;;
69325;SDS011;56471;53.508;49.252;2022-12-07T09:45:01;3.90;;;2.40;;
69325;SDS011;56471;53.508;49.252;2022-12-07T09:47:30;3.72;;;2.22;;
69325;SDS011;56471;53.508;49.252;2022-12-07T09:50:12;3.40;;;2.22;;
69325;SDS011;56471;53.508;49.252;2022-12-07T09:52:40;5.10;;;2.67;;
69325;SDS011;56471;53.508;49.252;2022-12-07T09:55:27;3.45;;;2.30;;
69325;SDS011;56471;53.508;49.252;2022-12-07T09:57:54;1379.93;;;603.95;;
69325;SDS011;56471;53.508;49.252;2022-12-07T10:00:22;943.28;;;466.17;;
69325;SDS011;56471;53.508;49.252;2022-12-07T10:02:55;600.13;;;288.67;;
69325;SDS011;56471;53.508;49.252;2022-12-07T10:05:27;376.45;;;154.15;;
69325;SDS011;56471;53.508;49.252;2022-12-07T10:07:56;232.07;;;101.05;;
69325;SDS011;56471;53.508;49.252;2022-12-07T10:10:26;161.07;;;68.88;;
69325;SDS011;56471;53.508;49.252;2022-12-07T10:13:05;121.90;;;52.00;;
69325;SDS011;56471;53.508;49.252;2022-12-07T10:15:49;95.72;;;39.58;;
69325;SDS011;56471;53.508;49.252;2022-12-07T10:26:26;41.25;;;16.25;;
69325;SDS011;56471;53.508;49.252;2022-12-07T10:31:45;22.58;;;9.88;;
69325;SDS011;56471;53.508;49.252;2022-12-07T10:34:22;20.80;;;9.20;;
69325;SDS011;56471;53.508;49.252;2022-12-07T10:36:51;20.27;;;8.77;;
69325;SDS011;56471;53.508;49.252;2022-12-07T10:39:18;19.65;;;8.85;;
69325;SDS011;56471;53.508;49.252;2022-12-07T10:42:01;19.20;;;8.10;;
69325;SDS011;56471;53.508;49.252;2022-12-07T10:44:32;19.58;;;8.30;;
69325;SDS011;56471;53.508;49.252;2022-12-07T11:12:54;10.70;;;4.97;;
69325;SDS011;56471;53.508;49.252;2022-12-07T11:15:47;10.38;;;5.20;;
69325;SDS011;56471;53.508;49.252;2022-12-07T11:18:31;10.18;;;4.95;;
69325;SDS011;56471;53.508;49.252;2022-12-07T11:37:51;109.05;;;46.78;;
69325;SDS011;56471;53.508;49.252;2022-12-07T11:40:27;87.07;;;37.55;;
69325;SDS011;56471;53.508;49.252;2022-12-07T11:42:58;74.82;;;30.50;;
69325;SDS011;56471;53.508;49.252;2022-12-07T11:45:30;61.17;;;25.50;;
69325;SDS011;56471;53.508;49.252;2022-12-07T11:50:27;42.15;;;17.30;;
69325;SDS011;56471;53.508;49.252;2022-12-07T12:01:11;19.35;;;9.15;;
69325;SDS011;56471;53.508;49.252;2022-12-07T12:03:45;22.40;;;9.48;;
69325;SDS011;56471;53.508;49.252;2022-12-07T12:06:12;19.35;;;8.80;;
69325;SDS011;56471;53.508;49.252;2022-12-07T12:08:40;17.77;;;7.97;;
69325;SDS011;56471;53.508;49.252;2022-12-07T12:17:12;14.13;;;7.18;;
69325;SDS011;56471;53.508;49.252;2022-12-07T12:19:45;14.65;;;6.88;;
69325;SDS011;56471;53.508;49.252;2022-12-07T12:22:32;13.93;;;6.70;;
69325;SDS011;56471;53.508;49.252;2022-12-07T12:25:03;15.48;;;6.55;;
69325;SDS011;56471;53.508;49.252;2022-12-07T12:27:32;13.32;;;6.28;;
69325;SDS011;56471;53.508;49.252;2022-12-07T12:30:01;10.63;;;5.43;;
69325;SDS011;56471;53.508;49.252;2022-12-07T12:32:36;11.02;;;5.57;;
69325;SDS011;56471;53.508;49.252;2022-12-07T12:38:20;10.65;;;4.80;;
69325;SDS011;56471;53.508;49.252;2022-12-07T12:40:55;10.18;;;4.85;;
69325;SDS011;56471;53.508;49.252;2022-12-07T12:43:40;9.00;;;4.57;;
69325;SDS011;56471;53.508;49.252;2022-12-07T12:48:57;7.43;;;4.20;;
69325;SDS011;56471;53.508;49.252;2022-12-07T12:51:40;8.93;;;4.57;;
69325;SDS011;56471;53.508;49.252;2022-12-07T12:59:28;8.10;;;4.10;;
69325;SDS011;56471;53.508;49.252;2022-12-07T13:04:51;8.20;;;3.97;;
69325;SDS011;56471;53.508;49.252;2022-12-07T13:13:39;9.02;;;4.28;;
69325;SDS011;56471;53.508;49.252;2022-12-07T13:15:51;1113.15;;;561.05;;
69325;SDS011;56471;53.508;49.252;2022-12-07T13:18:39;651.28;;;318.38;;
69325;SDS011;56471;53.508;49.252;2022-12-07T13:26:19;169.77;;;73.43;;
69325;SDS011;56471;53.508;49.252;2022-12-07T13:36:54;61.17;;;24.48;;
69325;SDS011;56471;53.508;49.252;2022-12-07T13:39:21;53.60;;;20.13;;
69325;SDS011;56471;53.508;49.252;2022-12-07T13:41:55;47.38;;;16.85;;
69325;SDS011;56471;53.508;49.252;2022-12-07T13:44:24;32.88;;;12.70;;
69325;SDS011;56471;53.508;49.252;2022-12-07T13:49:48;25.55;;;9.43;;
69325;SDS011;56471;53.508;49.252;2022-12-07T13:52:19;24.38;;;10.18;;
69325;SDS011;56471;53.508;49.252;2022-12-07T13:57:31;20.65;;;8.27;;
69325;SDS011;56471;53.508;49.252;2022-12-07T14:00:00;19.65;;;7.43;;
69325;SDS011;56471;53.508;49.252;2022-12-07T14:02:30;19.27;;;7.43;;
69325;SDS011;56471;53.508;49.252;2022-12-07T14:05:08;17.00;;;6.60;;
69325;SDS011;56471;53.508;49.252;2022-12-07T14:08:33;16.48;;;6.13;;
69325;SDS011;56471;53.508;49.252;2022-12-07T14:10:37;12.55;;;5.50;;
69325;SDS011;56471;53.508;49.252;2022-12-07T14:15:56;12.18;;;5.18;;
69325;SDS011;56471;53.508;49.252;2022-12-07T14:18:30;11.55;;;4.63;;
69325;SDS011;56471;53.508;49.252;2022-12-07T14:21:04;10.32;;;4.45;;
69325;SDS011;56471;53.508;49.252;2022-12-07T14:23:30;8.65;;;4.20;;
69325;SDS011;56471;53.508;49.252;2022-12-07T14:26:05;8.85;;;4.00;;
69325;SDS011;56471;53.508;49.252;2022-12-07T14:28:38;9.52;;;4.28;;
69325;SDS011;56471;53.508;49.252;2022-12-07T14:31:23;7.75;;;3.70;;
69325;SDS011;56471;53.508;49.252;2022-12-07T14:33:50;9.65;;;3.50;;
69325;SDS011;56471;53.508;49.252;2022-12-07T14:36:15;9.00;;;4.00;;
69325;SDS011;56471;53.508;49.252;2022-12-07T14:38:41;7.78;;;3.70;;
69325;SDS011;56471;53.508;49.252;2022-12-07T14:41:10;10.15;;;3.28;;
69325;SDS011;56471;53.508;49.252;2022-12-07T14:43:58;8.30;;;3.40;;
69325;SDS011;56471;53.508;49.252;2022-12-07T14:46:23;7.45;;;3.08;;
69325;SDS011;56471;53.508;49.252;2022-12-07T14:48:49;7.18;;;3.00;;
69325;SDS011;56471;53.508;49.252;2022-12-07T14:51:15;9.38;;;2.90;;
69325;SDS011;56471;53.508;49.252;2022-12-07T14:53:44;5.20;;;2.80;;
69325;SDS011;56471;53.508;49.252;2022-12-07T14:56:13;5.40;;;2.70;;
69325;SDS011;56471;53.508;49.252;2022-12-07T14:58:39;5.43;;;2.80;;
69325;SDS011;56471;53.508;49.252;2022-12-07T15:01:05;7.20;;;2.95;;
69325;SDS011;56471;53.508;49.252;2022-12-07T15:03:31;7.90;;;3.13;;
69325;SDS011;56471;53.508;49.252;2022-12-07T15:05:59;6.13;;;3.00;;
69325;SDS011;56471;53.508;49.252;2022-12-07T15:08:25;8.50;;;3.92;;
69325;SDS011;56471;53.508;49.252;2022-12-07T15:10:51;111.13;;;35.03;;
69325;SDS011;56471;53.508;49.252;2022-12-07T15:13:17;916.47;;;454.67;;
69325;SDS011;56471;53.508;49.252;2022-12-07T15:16:01;576.38;;;278.95;;
69325;SDS011;56471;53.508;49.252;2022-12-07T15:18:27;384.83;;;160.05;;
69325;SDS011;56471;53.508;49.252;2022-12-07T15:20:52;257.42;;;109.97;;
69325;SDS011;56471;53.508;49.252;2022-12-07T15:23:18;176.38;;;77.65;;
69325;SDS011;56471;53.508;49.252;2022-12-07T15:25:46;138.35;;;59.42;;
69325;SDS011;56471;53.508;49.252;2022-12-07T15:28:13;111.47;;;45.80;;
69325;SDS011;56471;53.508;49.252;2022-12-07T15:30:43;101.68;;;38.70;;
69325;SDS011;56471;53.508;49.252;2022-12-07T15:33:09;81.25;;;31.40;;
69325;SDS011;56471;53.508;49.252;2022-12-07T15:35:39;73.30;;;27.40;;
69325;SDS011;56471;53.508;49.252;2022-12-07T15:40:34;46.10;;;17.88;;
69325;SDS011;56471;53.508;49.252;2022-12-07T15:43:01;38.53;;;14.82;;
69325;SDS011;56471;53.508;49.252;2022-12-07T15:45:27;31.10;;;13.23;;
69325;SDS011;56471;53.508;49.252;2022-12-07T15:47:52;26.15;;;10.63;;
69325;SDS011;56471;53.508;49.252;2022-12-07T15:50:20;28.45;;;10.77;;
69325;SDS011;56471;53.508;49.252;2022-12-07T15:52:47;31.40;;;10.02;;
69325;SDS011;56471;53.508;49.252;2022-12-07T15:55:13;24.35;;;9.82;;
69325;SDS011;56471;53.508;49.252;2022-12-07T15:57:39;21.75;;;9.50;;
69325;SDS011;56471;53.508;49.252;2022-12-07T16:00:06;22.73;;;9.32;;
69325;SDS011;56471;53.508;49.252;2022-12-07T16:02:34;24.30;;;9.23;;
69325;SDS011;56471;53.508;49.252;2022-12-07T16:05:01;21.20;;;8.35;;
69325;SDS011;56471;53.508;49.252;2022-12-07T16:07:27;22.42;;;8.40;;
69325;SDS011;56471;53.508;49.252;2022-12-07T16:09:52;18.50;;;7.63;;
69325;SDS011;56471;53.508;49.252;2022-12-07T16:12:18;22.10;;;7.70;;
69325;SDS011;56471;53.508;49.252;2022-12-07T16:14:44;18.42;;;7.68;;
69325;SDS011;56471;53.508;49.252;2022-12-07T16:17:10;20.33;;;7.20;;
69325;SDS011;56471;53.508;49.252;2022-12-07T16:19:36;17.48;;;6.18;;
69325;SDS011;56471;53.508;49.252;2022-12-07T16:22:02;18.08;;;6.68;;
69325;SDS011;56471;53.508;49.252;2022-12-07T16:24:29;15.27;;;5.68;;
69325;SDS011;56471;53.508;49.252;2022-12-07T16:26:55;24.23;;;8.45;;
69325;SDS011;56471;53.508;49.252;2022-12-07T16:29:21;29.90;;;9.63;;
69325;SDS011;56471;53.508;49.252;2022-12-07T16:31:47;1006.08;;;529.90;;
69325;SDS011;56471;53.508;49.252;2022-12-07T16:34:13;690.25;;;352.20;;
69325;SDS011;56471;53.508;49.252;2022-12-07T16:36:39;467.27;;;229.82;;
69325;SDS011;56471;53.508;49.252;2022-12-07T16:39:05;318.48;;;137.73;;
69325;SDS011;56471;53.508;49.252;2022-12-07T16:41:31;218.25;;;97.85;;
69325;SDS011;56471;53.508;49.252;2022-12-07T16:44:00;163.02;;;72.55;;
69325;SDS011;56471;53.508;49.252;2022-12-07T16:46:28;133.13;;;58.33;;
69325;SDS011;56471;53.508;49.252;2022-12-07T16:48:54;108.10;;;45.97;;
69325;SDS011;56471;53.508;49.252;2022-12-07T16:51:20;96.80;;;40.10;;
69325;SDS011;56471;53.508;49.252;2022-12-07T16:53:46;81.70;;;33.53;;
69325;SDS011;56471;53.508;49.252;2022-12-07T16:56:13;72.38;;;28.52;;
69325;SDS011;56471;53.508;49.252;2022-12-07T16:58:43;60.92;;;24.38;;
69325;SDS011;56471;53.508;49.252;2022-12-07T17:01:13;53.55;;;20.27;;